createdAt,value
2022-12-23T00:00:49.890Z,29.09
2022-12-23T00:01:52.405Z,37.09
2022-12-23T00:02:54.608Z,34.73
2022-12-23T00:03:56.643Z,30.80
2022-12-23T00:04:58.440Z,30.11
2022-12-23T00:06:00.240Z,23.15
2022-12-23T00:07:02.063Z,28.29
2022-12-23T00:08:03.845Z,26.19
2022-12-23T00:09:05.669Z,31.79
2022-12-23T00:10:08.264Z,23.69
2022-12-23T00:11:10.063Z,18.50
2022-12-23T00:12:11.903Z,18.36
2022-12-23T00:13:13.714Z,25.09
2022-12-23T00:14:20.998Z,21.25
2022-12-23T00:15:19.107Z,21.84
2022-12-23T00:16:21.242Z,23.81
2022-12-23T00:17:23.382Z,20.39
2022-12-23T00:18:25.312Z,21.78
2022-12-23T00:19:27.123Z,15.11
2022-12-23T00:20:29.018Z,12.93
2022-12-23T00:21:30.826Z,15.50
2022-12-23T00:22:32.661Z,17.60
2022-12-23T00:23:34.448Z,17.19
2022-12-23T00:24:36.250Z,16.51
2022-12-23T00:25:38.037Z,13.79
2022-12-23T00:26:39.968Z,14.35
2022-12-23T00:27:41.827Z,11.68
2022-12-23T00:28:43.609Z,10.78
2022-12-23T00:29:45.400Z,13.12
2022-12-23T00:30:47.307Z,9.67
2022-12-23T00:31:49.254Z,11.83
2022-12-23T00:32:51.047Z,12.61
2022-12-23T00:33:52.859Z,11.59
2022-12-23T00:34:54.630Z,12.44
2022-12-23T00:35:56.455Z,13.55
2022-12-23T00:36:58.242Z,12.86
2022-12-23T00:38:00.099Z,12.15
2022-12-23T00:39:01.880Z,10.94
2022-12-23T00:40:06.764Z,12.67
2022-12-23T00:41:07.321Z,11.51
2022-12-23T00:42:09.103Z,12.39
2022-12-23T00:43:10.951Z,17.59
2022-12-23T00:44:12.773Z,12.82
2022-12-23T00:45:14.554Z,13.21
2022-12-23T00:46:16.814Z,13.53
2022-12-23T00:47:18.583Z,11.39
2022-12-23T00:48:20.427Z,12.14
2022-12-23T00:49:22.240Z,12.57
2022-12-23T00:50:24.036Z,12.16
2022-12-23T00:51:25.838Z,12.95
2022-12-23T00:52:27.625Z,11.45
2022-12-23T00:53:29.477Z,15.71
2022-12-23T00:54:31.266Z,14.91
2022-12-23T00:55:33.074Z,16.04
2022-12-23T00:56:34.968Z,14.13
2022-12-23T00:57:36.764Z,16.13
2022-12-23T00:58:38.617Z,17.65
2022-12-23T00:59:40.435Z,17.34
2022-12-23T01:00:42.419Z,16.49
2022-12-23T01:01:44.334Z,17.27
2022-12-23T01:02:46.334Z,13.68
2022-12-23T01:03:48.173Z,13.09
2022-12-23T01:04:49.975Z,13.69
2022-12-23T01:05:51.776Z,15.13
2022-12-23T01:06:53.679Z,16.73
2022-12-23T01:07:55.477Z,13.64
2022-12-23T01:08:57.325Z,14.43
2022-12-23T01:09:59.135Z,15.47
2022-12-23T01:11:01.022Z,12.99
2022-12-23T01:12:02.817Z,13.56
2022-12-23T01:13:04.616Z,14.15
2022-12-23T01:14:06.458Z,14.25
2022-12-23T01:15:08.258Z,13.34
2022-12-23T01:16:16.928Z,11.99
2022-12-23T01:17:14.424Z,12.29
2022-12-23T01:18:16.255Z,12.83
2022-12-23T01:19:18.074Z,14.54
2022-12-23T01:20:19.882Z,12.77
2022-12-23T01:21:21.676Z,13.51
2022-12-23T01:22:23.476Z,11.85
2022-12-23T01:23:25.277Z,12.11
2022-12-23T01:24:27.101Z,12.08
2022-12-23T01:25:29.006Z,12.39
2022-12-23T01:26:30.796Z,13.84
2022-12-23T01:27:32.606Z,12.97
2022-12-23T01:28:34.394Z,13.85
2022-12-23T01:29:36.229Z,12.85
2022-12-23T01:30:38.239Z,14.92
2022-12-23T01:31:40.070Z,12.85
2022-12-23T01:32:41.839Z,13.29
2022-12-23T01:33:43.644Z,12.18
2022-12-23T01:34:45.471Z,12.34
2022-12-23T01:35:47.284Z,13.55
2022-12-23T01:36:49.081Z,12.16
2022-12-23T01:37:51.008Z,13.09
2022-12-23T01:38:52.808Z,12.05
2022-12-23T01:39:54.654Z,12.53
2022-12-23T01:40:56.522Z,12.82
2022-12-23T01:41:58.303Z,12.86
2022-12-23T01:43:00.115Z,12.27
2022-12-23T01:44:01.809Z,11.32
2022-12-23T01:45:03.604Z,11.65
2022-12-23T01:46:05.771Z,12.39
2022-12-23T01:47:07.618Z,12.30
2022-12-23T01:48:09.412Z,12.81
2022-12-23T01:49:11.212Z,15.79
2022-12-23T01:50:13.426Z,16.77
2022-12-23T01:51:15.209Z,14.38
2022-12-23T01:52:17.009Z,15.75
2022-12-23T01:53:18.843Z,12.28
2022-12-23T01:54:20.640Z,14.16
2022-12-23T01:55:22.518Z,13.03
2022-12-23T01:56:24.428Z,13.77
2022-12-23T01:57:26.241Z,12.94
2022-12-23T01:58:28.096Z,12.87
2022-12-23T01:59:29.901Z,14.41
2022-12-23T02:00:32.026Z,11.74
2022-12-23T02:01:34.002Z,13.11
2022-12-23T02:02:35.973Z,13.72
2022-12-23T02:03:37.861Z,13.73
2022-12-23T02:04:39.732Z,13.74
2022-12-23T02:05:41.579Z,14.74
2022-12-23T02:06:43.385Z,14.23
2022-12-23T02:07:45.204Z,13.73
2022-12-23T02:08:47.049Z,13.31
2022-12-23T02:09:48.880Z,14.66
2022-12-23T02:10:50.812Z,15.03
2022-12-23T02:11:52.629Z,15.51
2022-12-23T02:12:54.454Z,17.41
2022-12-23T02:13:56.288Z,17.08
2022-12-23T02:14:58.110Z,16.16
2022-12-23T02:15:59.912Z,17.71
2022-12-23T02:17:01.993Z,14.64
2022-12-23T02:18:03.768Z,14.74
2022-12-23T02:19:05.611Z,14.10
2022-12-23T02:20:08.116Z,14.57
2022-12-23T02:21:09.929Z,15.68
2022-12-23T02:22:11.733Z,13.97
2022-12-23T02:23:13.630Z,13.92
2022-12-23T02:24:15.484Z,14.46
2022-12-23T02:25:17.283Z,14.57
2022-12-23T02:26:19.170Z,14.19
2022-12-23T02:27:20.986Z,13.93
2022-12-23T02:28:22.784Z,15.75
2022-12-23T02:29:24.604Z,13.38
2022-12-23T02:30:26.403Z,16.27
2022-12-23T02:31:28.261Z,16.15
2022-12-23T02:32:30.166Z,13.66
2022-12-23T02:33:31.962Z,15.98
2022-12-23T02:34:33.822Z,14.19
2022-12-23T02:35:35.615Z,15.81
2022-12-23T02:36:37.833Z,14.31
2022-12-23T02:37:39.631Z,15.45
2022-12-23T02:38:41.437Z,16.72
2022-12-23T02:39:43.296Z,17.50
2022-12-23T02:40:45.294Z,19.26
2022-12-23T02:41:47.092Z,20.13
2022-12-23T02:42:48.899Z,20.63
2022-12-23T02:43:50.713Z,21.11
2022-12-23T02:44:52.549Z,19.57
2022-12-23T02:45:54.406Z,20.99
2022-12-23T02:46:56.293Z,18.48
2022-12-23T02:47:58.143Z,19.25
2022-12-23T02:48:59.940Z,18.93
2022-12-23T02:50:01.785Z,18.63
2022-12-23T02:51:03.576Z,19.05
2022-12-23T02:52:05.394Z,17.39
2022-12-23T02:53:07.197Z,17.20
2022-12-23T02:54:08.989Z,15.75
2022-12-23T02:55:10.830Z,17.62
2022-12-23T02:56:13.149Z,16.99
2022-12-23T02:57:14.936Z,16.13
2022-12-23T02:58:16.750Z,16.97
2022-12-23T02:59:18.542Z,16.64
2022-12-23T03:00:20.613Z,17.07
2022-12-23T03:01:22.430Z,17.05
2022-12-23T03:02:24.519Z,17.11
2022-12-23T03:03:26.476Z,15.51
2022-12-23T03:04:28.265Z,17.40
2022-12-23T03:05:30.102Z,15.83
2022-12-23T03:06:32.063Z,14.35
2022-12-23T03:07:33.879Z,17.06
2022-12-23T03:08:35.665Z,16.32
2022-12-23T03:09:37.497Z,15.39
2022-12-23T03:10:39.423Z,14.50
2022-12-23T03:11:41.226Z,14.37
2022-12-23T03:12:43.058Z,14.11
2022-12-23T03:13:44.910Z,13.76
2022-12-23T03:14:46.727Z,14.08
2022-12-23T03:15:48.602Z,13.81
2022-12-23T03:16:50.553Z,14.50
2022-12-23T03:17:52.380Z,15.06
2022-12-23T03:18:54.250Z,15.91
2022-12-23T03:19:56.049Z,15.39
2022-12-23T03:20:57.977Z,16.79
2022-12-23T03:21:59.777Z,17.59
2022-12-23T03:23:01.624Z,16.51
2022-12-23T03:24:03.498Z,15.50
2022-12-23T03:25:05.336Z,17.73
2022-12-23T03:26:08.566Z,16.34
2022-12-23T03:27:10.399Z,15.51
2022-12-23T03:28:12.243Z,16.33
2022-12-23T03:29:14.058Z,17.62
2022-12-23T03:30:16.474Z,15.55
2022-12-23T03:31:18.345Z,13.75
2022-12-23T03:32:20.216Z,13.65
2022-12-23T03:33:22.027Z,16.13
2022-12-23T03:34:23.871Z,12.79
2022-12-23T03:35:25.690Z,12.61
2022-12-23T03:36:27.531Z,13.97
2022-12-23T03:37:29.334Z,13.24
2022-12-23T03:38:31.130Z,14.11
2022-12-23T03:39:32.971Z,14.19
2022-12-23T03:40:34.796Z,13.12
2022-12-23T03:41:36.614Z,14.38
2022-12-23T03:42:38.439Z,12.37
2022-12-23T03:43:43.484Z,13.33
2022-12-23T03:45:03.536Z,12.65
2022-12-23T03:45:47.510Z,13.18
2022-12-23T03:46:49.372Z,12.96
2022-12-23T03:47:51.319Z,12.58
2022-12-23T03:48:53.129Z,13.51
2022-12-23T03:49:54.931Z,14.25
2022-12-23T03:50:57.048Z,13.71
2022-12-23T03:51:58.886Z,13.15
2022-12-23T03:53:00.737Z,13.17
2022-12-23T03:54:02.550Z,15.11
2022-12-23T03:55:04.406Z,12.86
2022-12-23T03:56:07.365Z,13.74
2022-12-23T03:57:09.181Z,14.43
2022-12-23T03:58:11.059Z,15.19
2022-12-23T03:59:12.878Z,13.15
2022-12-23T04:00:14.820Z,13.37
2022-12-23T04:01:17.987Z,14.65
2022-12-23T04:02:20.342Z,14.92
2022-12-23T04:03:22.461Z,14.19
2022-12-23T04:04:24.315Z,15.54
2022-12-23T04:05:26.048Z,14.90
2022-12-23T04:06:27.891Z,14.57
2022-12-23T04:07:29.681Z,13.53
2022-12-23T04:08:31.464Z,16.48
2022-12-23T04:09:33.235Z,18.98
2022-12-23T04:10:35.342Z,17.55
2022-12-23T04:11:37.228Z,15.99
2022-12-23T04:12:39.005Z,18.05
2022-12-23T04:13:40.798Z,17.91
2022-12-23T04:14:42.573Z,17.11
2022-12-23T04:15:44.564Z,17.13
2022-12-23T04:16:46.649Z,18.48
2022-12-23T04:17:48.423Z,16.37
2022-12-23T04:18:50.280Z,17.80
2022-12-23T04:19:52.082Z,18.92
2022-12-23T04:20:53.859Z,19.31
2022-12-23T04:21:55.660Z,21.93
2022-12-23T04:22:57.504Z,20.01
2022-12-23T04:23:59.281Z,20.58
2022-12-23T04:25:01.078Z,16.29
2022-12-23T04:26:02.868Z,18.25
2022-12-23T04:27:04.661Z,14.98
2022-12-23T04:28:06.486Z,16.49
2022-12-23T04:29:08.278Z,15.61
2022-12-23T04:30:10.200Z,15.64
2022-12-23T04:31:12.045Z,15.26
2022-12-23T04:32:13.860Z,14.89
2022-12-23T04:33:15.707Z,16.19
2022-12-23T04:34:17.499Z,16.00
2022-12-23T04:35:19.274Z,19.24
2022-12-23T04:36:21.276Z,14.54
2022-12-23T04:37:23.071Z,14.90
2022-12-23T04:38:24.905Z,15.76
2022-12-23T04:39:26.718Z,14.48
2022-12-23T04:40:28.587Z,16.36
2022-12-23T04:41:30.378Z,14.47
2022-12-23T04:42:32.208Z,13.47
2022-12-23T04:43:34.005Z,14.91
2022-12-23T04:44:35.785Z,17.08
2022-12-23T04:45:37.571Z,16.97
2022-12-23T04:46:39.550Z,17.43
2022-12-23T04:47:41.375Z,18.52
2022-12-23T04:48:43.209Z,18.44
2022-12-23T04:49:45.035Z,19.38
2022-12-23T04:50:47.212Z,18.72
2022-12-23T04:51:49.004Z,22.08
2022-12-23T04:52:50.786Z,20.37
2022-12-23T04:53:52.640Z,21.02
2022-12-23T04:54:54.475Z,20.43
2022-12-23T04:55:56.259Z,21.11
2022-12-23T04:56:58.168Z,21.75
2022-12-23T04:57:59.985Z,21.50
2022-12-23T04:59:01.777Z,20.81
2022-12-23T05:00:03.605Z,22.52
2022-12-23T05:01:05.441Z,22.43
2022-12-23T05:02:07.406Z,20.82
2022-12-23T05:03:09.454Z,19.39
2022-12-23T05:04:11.341Z,20.85
2022-12-23T05:05:13.143Z,20.37
2022-12-23T05:06:14.970Z,21.11
2022-12-23T05:07:16.751Z,21.96
2022-12-23T05:08:18.554Z,20.43
2022-12-23T05:09:20.384Z,19.38
2022-12-23T05:10:22.285Z,22.28
2022-12-23T05:11:24.076Z,18.74
2022-12-23T05:12:25.867Z,19.64
2022-12-23T05:13:27.643Z,18.45
2022-12-23T05:14:29.456Z,24.61
2022-12-23T05:15:31.252Z,44.08
2022-12-23T05:16:33.105Z,26.51
2022-12-23T05:17:34.966Z,21.27
2022-12-23T05:18:36.774Z,18.60
2022-12-23T05:19:38.609Z,20.63
2022-12-23T05:20:40.507Z,21.02
2022-12-23T05:21:42.290Z,21.76
2022-12-23T05:22:44.106Z,19.25
2022-12-23T05:23:45.874Z,20.99
2022-12-23T05:24:47.737Z,20.89
2022-12-23T05:25:49.587Z,22.95
2022-12-23T05:26:59.225Z,19.01
2022-12-23T05:27:54.972Z,20.36
2022-12-23T05:28:56.754Z,20.17
2022-12-23T05:29:58.581Z,22.21
2022-12-23T05:31:00.385Z,20.88
2022-12-23T05:32:02.272Z,23.36
2022-12-23T05:33:04.145Z,21.20
2022-12-23T05:34:06.862Z,21.12
2022-12-23T05:35:08.807Z,23.69
2022-12-23T05:36:11.235Z,25.99
2022-12-23T05:37:13.069Z,25.19
2022-12-23T05:38:14.845Z,20.01
2022-12-23T05:39:16.652Z,21.34
2022-12-23T05:40:23.191Z,21.42
2022-12-23T05:41:22.619Z,22.61
2022-12-23T05:42:24.434Z,23.62
2022-12-23T05:43:26.203Z,24.07
2022-12-23T05:44:28.013Z,26.31
2022-12-23T05:45:29.898Z,24.71
2022-12-23T05:46:31.825Z,24.63
2022-12-23T05:47:33.776Z,24.39
2022-12-23T05:48:35.571Z,28.24
2022-12-23T05:49:37.348Z,23.74
2022-12-23T05:50:39.475Z,25.10
2022-12-23T05:51:41.314Z,24.41
2022-12-23T05:52:43.129Z,22.76
2022-12-23T05:53:44.931Z,23.00
2022-12-23T05:54:46.747Z,22.07
2022-12-23T05:55:48.563Z,25.28
2022-12-23T05:56:50.341Z,20.70
2022-12-23T05:57:52.119Z,22.61
2022-12-23T05:58:53.940Z,22.29
2022-12-23T05:59:55.726Z,23.55
2022-12-23T06:00:57.674Z,19.44
2022-12-23T06:01:59.743Z,23.00
2022-12-23T06:03:01.709Z,24.23
2022-12-23T06:04:03.847Z,21.61
2022-12-23T06:05:05.753Z,22.98
2022-12-23T06:06:08.803Z,21.62
2022-12-23T06:07:10.609Z,22.84
2022-12-23T06:08:12.437Z,20.02
2022-12-23T06:09:14.226Z,22.37
2022-12-23T06:10:16.025Z,22.39
2022-12-23T06:11:17.818Z,23.09
2022-12-23T06:12:19.695Z,19.55
2022-12-23T06:13:21.484Z,19.17
2022-12-23T06:14:28.586Z,26.37
2022-12-23T06:15:26.910Z,19.26
2022-12-23T06:16:28.991Z,23.47
2022-12-23T06:17:30.825Z,29.03
2022-12-23T06:18:32.639Z,25.71
2022-12-23T06:19:34.468Z,22.99
2022-12-23T06:20:36.404Z,18.23
2022-12-23T06:21:38.223Z,20.56
2022-12-23T06:22:40.047Z,19.31
2022-12-23T06:23:41.871Z,17.46
2022-12-23T06:24:43.702Z,19.82
2022-12-23T06:25:45.563Z,18.64
2022-12-23T06:26:50.826Z,18.75
2022-12-23T06:27:51.152Z,18.26
2022-12-23T06:28:52.974Z,17.89
2022-12-23T06:29:54.848Z,16.63
2022-12-23T06:30:56.686Z,18.70
2022-12-23T06:31:58.557Z,18.80
2022-12-23T06:33:00.477Z,19.68
2022-12-23T06:34:02.304Z,17.83
2022-12-23T06:35:04.104Z,18.08
2022-12-23T06:36:06.113Z,20.15
2022-12-23T06:37:07.937Z,18.69
2022-12-23T06:38:12.204Z,18.69
2022-12-23T06:39:13.389Z,17.04
2022-12-23T06:40:15.470Z,15.47
2022-12-23T06:41:17.358Z,15.49
2022-12-23T06:42:19.164Z,16.00
2022-12-23T06:43:20.964Z,15.72
2022-12-23T06:44:22.782Z,15.76
2022-12-23T06:45:24.595Z,17.14
2022-12-23T06:46:26.821Z,16.54
2022-12-23T06:47:28.730Z,17.51
2022-12-23T06:48:30.594Z,17.28
2022-12-23T06:49:32.399Z,19.35
2022-12-23T06:50:34.207Z,20.06
2022-12-23T06:51:36.072Z,20.97
2022-12-23T06:52:37.910Z,20.49
2022-12-23T06:53:39.752Z,16.88
2022-12-23T06:54:41.572Z,18.39
2022-12-23T06:55:43.371Z,18.25
2022-12-23T06:56:45.294Z,14.97
2022-12-23T06:57:47.167Z,15.68
2022-12-23T06:58:48.990Z,16.95
2022-12-23T06:59:50.783Z,17.47
2022-12-23T07:00:53.177Z,16.56
2022-12-23T07:01:55.236Z,17.83
2022-12-23T07:02:57.293Z,29.41
2022-12-23T07:03:59.187Z,50.33
2022-12-23T07:05:01.009Z,84.73
2022-12-23T07:06:02.835Z,95.20
2022-12-23T07:07:04.716Z,109.35
2022-12-23T07:08:06.540Z,73.41
2022-12-23T07:09:08.371Z,61.68
2022-12-23T07:10:10.590Z,62.85
2022-12-23T07:11:12.405Z,46.30
2022-12-23T07:12:14.237Z,35.89
2022-12-23T07:13:16.040Z,34.07
2022-12-23T07:14:17.923Z,28.98
2022-12-23T07:15:19.752Z,20.57
2022-12-23T07:16:21.711Z,18.89
2022-12-23T07:17:23.509Z,18.52
2022-12-23T07:18:25.290Z,18.42
2022-12-23T07:19:27.139Z,25.30
2022-12-23T07:20:29.037Z,23.65
2022-12-23T07:21:30.960Z,24.26
2022-12-23T07:22:32.771Z,23.50
2022-12-23T07:23:34.614Z,23.81
2022-12-23T07:24:36.400Z,20.41
2022-12-23T07:25:38.216Z,18.53
2022-12-23T07:26:40.260Z,19.07
2022-12-23T07:27:42.080Z,22.49
2022-12-23T07:28:44.015Z,21.56
2022-12-23T07:29:45.845Z,20.71
2022-12-23T07:30:47.692Z,24.21
2022-12-23T07:31:49.622Z,31.65
2022-12-23T07:32:51.498Z,34.85
2022-12-23T07:33:53.314Z,28.79
2022-12-23T07:34:55.150Z,26.15
2022-12-23T07:35:56.952Z,27.86
2022-12-23T07:36:58.802Z,30.54
2022-12-23T07:38:00.612Z,29.11
2022-12-23T07:39:02.446Z,23.95
2022-12-23T07:40:08.632Z,23.53
2022-12-23T07:41:07.937Z,23.05
2022-12-23T07:42:42.914Z,22.15
2022-12-23T07:43:13.392Z,28.49
2022-12-23T07:44:15.194Z,24.58
2022-12-23T07:45:17.028Z,23.47
2022-12-23T07:46:18.891Z,23.76
2022-12-23T07:47:20.687Z,22.56
2022-12-23T07:48:22.506Z,21.12
2022-12-23T07:49:24.316Z,25.62
2022-12-23T07:50:26.297Z,38.14
2022-12-23T07:51:28.189Z,41.73
2022-12-23T07:52:30.053Z,50.63
2022-12-23T07:53:31.851Z,43.11
2022-12-23T07:54:33.674Z,37.05
2022-12-23T07:55:35.564Z,30.93
2022-12-23T07:56:37.521Z,33.79
2022-12-23T07:57:39.368Z,30.99
2022-12-23T07:58:41.259Z,29.80
2022-12-23T07:59:43.041Z,30.69
2022-12-23T08:00:45.191Z,25.89
2022-12-23T08:01:47.130Z,25.38
2022-12-23T08:02:49.174Z,23.49
2022-12-23T08:03:51.303Z,25.96
2022-12-23T08:04:53.171Z,31.03
2022-12-23T08:05:54.948Z,30.97
2022-12-23T08:06:56.824Z,46.06
2022-12-23T08:07:58.651Z,72.18
2022-12-23T08:09:00.460Z,83.09
2022-12-23T08:10:02.313Z,116.49
2022-12-23T08:11:04.186Z,128.75
2022-12-23T08:12:06.043Z,129.58
2022-12-23T08:13:07.875Z,132.86
2022-12-23T08:14:09.681Z,105.11
2022-12-23T08:15:11.573Z,95.45
2022-12-23T08:16:13.708Z,84.58
2022-12-23T08:17:15.672Z,67.65
2022-12-23T08:18:17.555Z,61.00
2022-12-23T08:19:19.340Z,52.31
2022-12-23T08:20:21.249Z,47.40
2022-12-23T08:21:23.046Z,43.51
2022-12-23T08:22:24.941Z,45.96
2022-12-23T08:23:26.728Z,45.98
2022-12-23T08:24:28.546Z,39.00
2022-12-23T08:25:30.365Z,35.50
2022-12-23T08:26:32.323Z,34.16
2022-12-23T08:27:34.149Z,32.59
2022-12-23T08:28:35.946Z,27.46
2022-12-23T08:29:38.231Z,24.36
2022-12-23T08:30:40.327Z,25.24
2022-12-23T08:31:42.146Z,24.93
2022-12-23T08:32:43.959Z,22.63
2022-12-23T08:33:45.736Z,23.34
2022-12-23T08:34:47.522Z,22.53
2022-12-23T08:35:49.317Z,24.08
2022-12-23T08:36:51.172Z,28.15
2022-12-23T08:37:52.984Z,30.80
2022-12-23T08:38:54.761Z,26.80
2022-12-23T08:39:56.581Z,25.15
2022-12-23T08:40:58.392Z,23.99
2022-12-23T08:42:00.190Z,29.99
2022-12-23T08:43:01.974Z,30.05
2022-12-23T08:44:03.806Z,34.02
2022-12-23T08:45:05.658Z,36.29
2022-12-23T08:46:07.862Z,30.73
2022-12-23T08:47:10.003Z,26.50
2022-12-23T08:48:11.787Z,27.50
2022-12-23T08:49:13.566Z,28.26
2022-12-23T08:50:15.678Z,28.24
2022-12-23T08:51:17.515Z,32.01
2022-12-23T08:52:19.294Z,32.17
2022-12-23T08:53:21.079Z,44.41
2022-12-23T08:54:22.877Z,37.64
2022-12-23T08:55:24.752Z,29.42
2022-12-23T08:56:26.670Z,34.54
2022-12-23T08:57:28.446Z,28.77
2022-12-23T08:58:30.252Z,35.91
2022-12-23T08:59:32.085Z,30.09
2022-12-23T09:00:34.178Z,29.85
2022-12-23T09:01:36.224Z,29.38
2022-12-23T09:02:38.150Z,26.45
2022-12-23T09:03:40.161Z,27.18
2022-12-23T09:04:41.945Z,29.11
2022-12-23T09:05:43.735Z,26.55
2022-12-23T09:06:45.764Z,26.38
2022-12-23T09:07:47.590Z,22.94
2022-12-23T09:08:49.399Z,21.95
2022-12-23T09:09:51.212Z,20.64
2022-12-23T09:10:53.363Z,20.71
2022-12-23T09:11:55.116Z,23.63
2022-12-23T09:12:58.135Z,20.63
2022-12-23T09:14:00.091Z,21.82
2022-12-23T09:15:01.854Z,17.79
2022-12-23T09:16:03.733Z,22.96
2022-12-23T09:17:05.566Z,25.09
2022-12-23T09:18:10.196Z,22.38
2022-12-23T09:19:12.054Z,21.68
2022-12-23T09:20:14.064Z,19.75
2022-12-23T09:21:15.849Z,20.75
2022-12-23T09:22:17.552Z,19.80
2022-12-23T09:23:19.561Z,24.88
2022-12-23T09:24:21.379Z,33.40
2022-12-23T09:25:23.204Z,30.51
2022-12-23T09:26:25.115Z,28.45
2022-12-23T09:27:26.899Z,32.00
2022-12-23T09:28:28.687Z,25.75
2022-12-23T09:29:30.573Z,21.43
2022-12-23T09:30:32.360Z,20.95
2022-12-23T09:31:37.375Z,21.22
2022-12-23T09:32:37.764Z,20.92
2022-12-23T09:33:39.547Z,19.09
2022-12-23T09:34:41.367Z,21.47
2022-12-23T09:35:43.153Z,25.60
2022-12-23T09:36:47.978Z,25.10
2022-12-23T09:37:48.650Z,27.93
2022-12-23T09:38:50.419Z,34.30
2022-12-23T09:39:52.261Z,28.68
2022-12-23T09:40:54.159Z,21.07
2022-12-23T09:41:55.943Z,21.41
2022-12-23T09:42:57.751Z,20.88
2022-12-23T09:43:59.513Z,21.86
2022-12-23T09:45:01.381Z,19.51
2022-12-23T09:46:03.308Z,22.19
2022-12-23T09:47:05.085Z,22.15
2022-12-23T09:48:06.880Z,21.74
2022-12-23T09:49:08.662Z,29.19
2022-12-23T09:50:10.527Z,25.44
2022-12-23T09:51:12.327Z,23.07
2022-12-23T09:52:14.136Z,29.23
2022-12-23T09:53:15.946Z,30.60
2022-12-23T09:54:18.812Z,26.81
2022-12-23T09:55:20.677Z,21.64
2022-12-23T09:56:22.590Z,20.72
2022-12-23T09:57:24.749Z,21.31
2022-12-23T09:58:26.554Z,21.33
2022-12-23T09:59:28.459Z,23.66
2022-12-23T10:00:30.420Z,23.59
2022-12-23T10:01:32.315Z,22.01
2022-12-23T10:02:34.392Z,24.43
2022-12-23T10:03:36.502Z,24.36
2022-12-23T10:04:38.432Z,22.06
2022-12-23T10:05:40.255Z,22.18
2022-12-23T10:06:42.342Z,20.97
2022-12-23T10:07:44.151Z,24.35
2022-12-23T10:08:45.909Z,22.70
2022-12-23T10:09:47.711Z,21.77
2022-12-23T10:10:49.662Z,20.68
2022-12-23T10:11:51.467Z,22.46
2022-12-23T10:12:53.253Z,30.46
2022-12-23T10:13:55.042Z,22.77
2022-12-23T10:14:56.817Z,22.71
2022-12-23T10:15:58.689Z,21.56
2022-12-23T10:17:00.568Z,22.21
2022-12-23T10:18:02.352Z,25.64
2022-12-23T10:19:04.152Z,20.75
2022-12-23T10:20:06.239Z,21.66
2022-12-23T10:21:08.074Z,22.49
2022-12-23T10:22:09.853Z,24.89
2022-12-23T10:23:11.683Z,25.17
2022-12-23T10:24:13.479Z,24.27
2022-12-23T10:25:15.265Z,21.79
2022-12-23T10:26:17.129Z,21.61
2022-12-23T10:27:18.913Z,25.13
2022-12-23T10:28:20.696Z,21.75
2022-12-23T10:29:22.504Z,21.69
2022-12-23T10:30:53.929Z,25.64
2022-12-23T10:31:40.138Z,22.20
2022-12-23T10:32:32.031Z,21.83
2022-12-23T10:33:33.816Z,21.56
2022-12-23T10:35:39.197Z,21.42
2022-12-23T10:36:41.147Z,20.29
2022-12-23T10:37:43.215Z,25.69
2022-12-23T10:38:45.004Z,26.66
2022-12-23T10:39:46.812Z,57.20
2022-12-23T10:40:48.800Z,45.70
2022-12-23T10:41:50.688Z,30.37
2022-12-23T10:42:52.548Z,26.37
2022-12-23T10:43:54.395Z,22.23
2022-12-23T10:44:56.308Z,24.03
2022-12-23T10:45:58.111Z,25.83
2022-12-23T10:47:00.225Z,28.03
2022-12-23T10:48:02.062Z,28.88
2022-12-23T10:49:03.883Z,26.25
2022-12-23T10:50:06.042Z,24.73
2022-12-23T10:51:07.848Z,23.32
2022-12-23T10:52:09.708Z,24.84
2022-12-23T10:53:11.566Z,24.24
2022-12-23T10:54:13.363Z,25.13
2022-12-23T10:55:15.183Z,25.18
2022-12-23T10:56:17.374Z,25.03
2022-12-23T10:57:19.186Z,29.01
2022-12-23T10:58:20.999Z,25.65
2022-12-23T10:59:22.821Z,24.73
2022-12-23T11:00:24.755Z,28.88
2022-12-23T11:01:27.742Z,42.46
2022-12-23T11:02:29.997Z,36.49
2022-12-23T11:03:32.223Z,32.23
2022-12-23T11:04:34.275Z,28.27
2022-12-23T11:05:36.084Z,33.31
2022-12-23T11:06:38.609Z,25.01
2022-12-23T11:07:45.435Z,29.91
2022-12-23T11:08:44.147Z,30.11
2022-12-23T11:09:45.916Z,27.56
2022-12-23T11:10:48.025Z,26.60
2022-12-23T11:11:49.941Z,22.43
2022-12-23T11:12:51.811Z,24.91
2022-12-23T11:13:54.392Z,24.39
2022-12-23T11:14:56.195Z,23.87
2022-12-23T11:15:58.050Z,25.36
2022-12-23T11:17:00.247Z,25.15
2022-12-23T11:18:02.217Z,26.69
2022-12-23T11:19:04.000Z,26.18
2022-12-23T11:20:05.920Z,23.34
2022-12-23T11:21:07.721Z,26.61
2022-12-23T11:22:09.536Z,21.86
2022-12-23T11:23:11.405Z,29.16
2022-12-23T11:24:14.231Z,25.30
2022-12-23T11:25:16.038Z,28.26
2022-12-23T11:26:17.968Z,25.48
2022-12-23T11:27:20.686Z,23.25
2022-12-23T11:28:22.555Z,24.03
2022-12-23T11:29:24.398Z,22.81
2022-12-23T11:30:26.219Z,21.16
2022-12-23T11:31:28.056Z,25.12
2022-12-23T11:32:29.912Z,24.04
2022-12-23T11:33:31.792Z,26.97
2022-12-23T11:34:33.611Z,29.05
2022-12-23T11:35:35.523Z,27.82
2022-12-23T11:36:38.651Z,23.99
2022-12-23T11:37:40.460Z,23.67
2022-12-23T11:38:43.112Z,25.47
2022-12-23T11:39:44.929Z,25.02
2022-12-23T11:40:46.736Z,24.98
2022-12-23T11:41:48.591Z,23.67
2022-12-23T11:42:53.564Z,22.94
2022-12-23T11:43:54.033Z,24.57
2022-12-23T11:44:55.837Z,23.26
2022-12-23T11:45:57.700Z,27.43
2022-12-23T11:47:00.107Z,25.39
2022-12-23T11:48:01.900Z,24.55
2022-12-23T11:49:03.811Z,24.24
2022-12-23T11:50:05.832Z,22.42
2022-12-23T11:51:07.638Z,24.05
2022-12-23T11:52:09.457Z,22.63
2022-12-23T11:53:11.631Z,22.27
2022-12-23T11:54:13.475Z,23.25
2022-12-23T11:55:15.393Z,20.92
2022-12-23T11:56:17.342Z,24.04
2022-12-23T11:57:19.221Z,23.77
2022-12-23T11:58:21.147Z,23.47
2022-12-23T11:59:23.019Z,28.64
2022-12-23T12:00:25.017Z,28.95
2022-12-23T12:01:26.832Z,27.25
2022-12-23T12:02:28.666Z,26.20
2022-12-23T12:03:30.499Z,24.46
2022-12-23T12:04:32.384Z,23.27
2022-12-23T12:05:34.194Z,26.10
2022-12-23T12:06:36.010Z,26.43
2022-12-23T12:07:38.434Z,25.52
2022-12-23T12:08:40.253Z,26.23
2022-12-23T12:09:43.140Z,25.24
2022-12-23T12:10:45.063Z,24.44
2022-12-23T12:11:46.876Z,25.95
2022-12-23T12:12:52.907Z,25.95
2022-12-23T12:13:52.371Z,25.86
2022-12-23T12:14:54.475Z,27.05
2022-12-23T12:15:56.423Z,23.73
2022-12-23T12:16:58.293Z,27.15
2022-12-23T12:18:00.183Z,25.84
2022-12-23T12:19:01.998Z,24.99
2022-12-23T12:20:04.012Z,23.91
2022-12-23T12:21:05.853Z,26.31
2022-12-23T12:22:07.713Z,27.03
2022-12-23T12:23:09.543Z,27.07
2022-12-23T12:24:19.807Z,27.62
2022-12-23T12:25:15.185Z,27.19
2022-12-23T12:26:17.475Z,30.25
2022-12-23T12:27:19.366Z,24.59
2022-12-23T12:28:21.196Z,24.41
2022-12-23T12:29:22.988Z,27.59
2022-12-23T12:30:24.876Z,28.67
2022-12-23T12:31:26.795Z,25.89
2022-12-23T12:32:28.657Z,26.98
2022-12-23T12:33:30.475Z,26.15
2022-12-23T12:34:32.309Z,38.41
2022-12-23T12:35:34.195Z,29.06
2022-12-23T12:36:36.250Z,27.09
2022-12-23T12:37:38.677Z,26.84
2022-12-23T12:38:40.480Z,24.59
2022-12-23T12:39:42.415Z,24.68
2022-12-23T12:40:44.579Z,23.93
2022-12-23T12:41:46.404Z,24.71
2022-12-23T12:42:48.226Z,26.13
2022-12-23T12:43:50.051Z,24.55
2022-12-23T12:44:51.859Z,27.50
2022-12-23T12:45:53.756Z,24.03
2022-12-23T12:46:55.823Z,23.15
2022-12-23T12:48:04.414Z,22.75
2022-12-23T12:49:01.267Z,25.16
2022-12-23T12:50:03.084Z,24.31
2022-12-23T12:51:04.987Z,24.69
2022-12-23T12:52:06.810Z,24.69
2022-12-23T12:53:08.612Z,26.68
2022-12-23T12:54:10.394Z,25.42
2022-12-23T12:55:12.190Z,25.70
2022-12-23T12:56:14.022Z,27.87
2022-12-23T12:57:15.816Z,24.46
2022-12-23T12:58:17.600Z,27.96
2022-12-23T12:59:19.392Z,25.28
2022-12-23T13:00:21.291Z,25.58
2022-12-23T13:01:23.238Z,23.07
2022-12-23T13:02:25.048Z,22.62
2022-12-23T13:03:26.797Z,26.20
2022-12-23T13:04:28.589Z,24.74
2022-12-23T13:05:30.387Z,27.33
2022-12-23T13:06:32.326Z,26.11
2022-12-23T13:07:34.108Z,27.32
2022-12-23T13:08:35.891Z,26.61
2022-12-23T13:09:37.685Z,28.69
2022-12-23T13:10:39.790Z,27.23
2022-12-23T13:11:41.617Z,23.79
2022-12-23T13:12:43.398Z,26.35
2022-12-23T13:13:45.198Z,28.81
2022-12-23T13:14:46.998Z,29.58
2022-12-23T13:15:48.763Z,27.96
2022-12-23T13:16:51.332Z,27.97
2022-12-23T13:17:53.084Z,27.57
2022-12-23T13:18:54.877Z,28.73